createdAt,value
2017-05-06T00:00:35.639Z,56.50
2017-05-06T00:03:03.351Z,56.50
2017-05-06T00:05:30.324Z,56.60
2017-05-06T00:07:57.318Z,56.70
2017-05-06T00:10:24.300Z,56.50
2017-05-06T00:12:51.286Z,56.30
2017-05-06T00:15:18.990Z,56.20
2017-05-06T00:17:45.993Z,56.20
2017-05-06T00:20:12.961Z,56.80
2017-05-06T00:22:39.964Z,56.30
2017-05-06T00:25:06.934Z,56.20
2017-05-06T00:27:33.904Z,56.70
2017-05-06T00:30:00.894Z,56.20
2017-05-06T00:32:27.870Z,56.20
2017-05-06T00:34:55.617Z,56.00
2017-05-06T00:37:22.578Z,56.00
2017-05-06T00:39:50.312Z,56.00
2017-05-06T00:42:17.302Z,55.80
2017-05-06T00:44:44.277Z,55.40
2017-05-06T00:47:11.273Z,55.50
2017-05-06T00:49:38.983Z,55.90
2017-05-06T00:52:05.975Z,56.00
2017-05-06T00:54:33.690Z,55.80
2017-05-06T00:59:34.404Z,55.80
2017-05-06T01:02:02.117Z,55.90
2017-05-06T01:04:29.125Z,55.80
2017-05-06T01:06:56.108Z,56.00
2017-05-06T01:09:23.119Z,56.00
2017-05-06T01:11:50.490Z,56.20
2017-05-06T01:14:17.461Z,56.20
2017-05-06T01:16:44.452Z,56.20
2017-05-06T01:19:12.193Z,56.10
2017-05-06T01:21:39.185Z,56.10
2017-05-06T01:24:06.145Z,56.40
2017-05-06T01:26:33.121Z,56.40
2017-05-06T01:29:00.120Z,56.50
2017-05-06T01:31:27.094Z,56.50
2017-05-06T01:33:54.130Z,56.40
2017-05-06T01:36:21.102Z,56.20
2017-05-06T01:38:48.116Z,55.90
2017-05-06T01:41:15.085Z,55.70
2017-05-06T01:43:42.054Z,55.80
2017-05-06T01:46:09.050Z,55.80
2017-05-06T01:48:36.012Z,55.60
2017-05-06T01:51:03.005Z,55.70
2017-05-06T01:53:30.711Z,56.30
2017-05-06T01:55:57.696Z,56.40
2017-05-06T01:58:24.683Z,56.50
2017-05-06T02:00:51.662Z,57.10
2017-05-06T02:03:18.649Z,56.40
2017-05-06T02:05:46.359Z,56.20
2017-05-06T02:08:13.370Z,56.00
2017-05-06T02:10:41.092Z,55.90
2017-05-06T02:13:08.091Z,56.00
2017-05-06T02:15:35.065Z,56.00
2017-05-06T02:18:02.066Z,55.70
2017-05-06T02:20:29.778Z,55.50
2017-05-06T02:22:56.769Z,56.00
2017-05-06T02:25:24.469Z,57.10
2017-05-06T02:27:51.482Z,56.80
2017-05-06T02:30:19.193Z,56.40
2017-05-06T02:32:46.161Z,56.30
2017-05-06T02:35:13.152Z,56.00
2017-05-06T02:37:40.123Z,55.70
2017-05-06T02:40:07.114Z,55.40
2017-05-06T02:42:34.075Z,56.30
2017-05-06T02:45:01.821Z,56.10
2017-05-06T02:47:28.788Z,55.80
2017-05-06T02:49:56.500Z,55.80
2017-05-06T02:52:23.496Z,56.00
2017-05-06T02:54:51.205Z,56.20
2017-05-06T02:57:18.195Z,56.40
2017-05-06T02:59:45.185Z,56.40
2017-05-06T03:02:12.190Z,56.50
2017-05-06T03:04:39.902Z,56.90
2017-05-06T03:07:06.901Z,57.00
2017-05-06T03:09:34.621Z,57.10
2017-05-06T03:12:01.590Z,57.20
2017-05-06T03:14:28.573Z,57.40
2017-05-06T03:16:55.548Z,57.20
2017-05-06T03:19:22.537Z,57.50
2017-05-06T03:21:49.524Z,57.50
2017-05-06T03:24:16.545Z,57.40
2017-05-06T03:26:44.251Z,57.40
2017-05-06T03:29:11.237Z,57.20
2017-05-06T03:31:38.230Z,57.30
2017-05-06T03:34:05.211Z,57.30
2017-05-06T03:36:32.209Z,57.20
2017-05-06T03:38:59.182Z,56.90
2017-05-06T03:41:26.189Z,56.50
2017-05-06T03:43:53.903Z,56.20
2017-05-06T03:46:20.870Z,55.80
2017-05-06T03:48:47.862Z,56.10
2017-05-06T03:51:14.882Z,55.90
2017-05-06T03:53:42.617Z,56.00
2017-05-06T03:56:09.586Z,56.00
2017-05-06T03:58:37.342Z,56.80
2017-05-06T04:01:04.308Z,56.50
2017-05-06T04:03:32.045Z,56.70
2017-05-06T04:05:59.030Z,56.50
2017-05-06T04:08:26.046Z,56.30
2017-05-06T04:10:53.015Z,56.40
2017-05-06T04:13:20.729Z,56.70
2017-05-06T04:15:47.719Z,56.80
2017-05-06T04:18:15.454Z,56.90
2017-05-06T04:20:42.465Z,56.70
2017-05-06T04:23:09.439Z,56.80
2017-05-06T04:25:36.446Z,56.90
2017-05-06T04:28:03.431Z,57.00
2017-05-06T04:30:30.413Z,57.20
2017-05-06T04:32:58.142Z,56.90
2017-05-06T04:35:25.116Z,56.90
2017-05-06T04:37:52.862Z,57.40
2017-05-06T04:40:19.832Z,57.90
2017-05-06T04:42:47.592Z,58.10
2017-05-06T04:45:15.310Z,58.00
2017-05-06T04:47:42.277Z,57.70
2017-05-06T04:50:09.266Z,58.10
2017-05-06T04:52:36.249Z,58.10
2017-05-06T04:55:03.342Z,58.10
2017-05-06T04:57:31.056Z,58.50
2017-05-06T04:59:58.071Z,58.70
2017-05-06T05:02:25.036Z,59.50
2017-05-06T05:04:52.019Z,60.30
2017-05-06T05:07:19.023Z,60.40
2017-05-06T05:09:46.009Z,60.40
2017-05-06T05:12:12.998Z,61.00
2017-05-06T05:14:39.993Z,61.50
2017-05-06T05:17:06.997Z,61.50
2017-05-06T05:19:33.971Z,61.60
2017-05-06T05:22:00.946Z,60.00
2017-05-06T05:24:27.939Z,59.90
2017-05-06T05:26:54.910Z,59.90
2017-05-06T05:29:21.906Z,59.80
2017-05-06T05:31:49.647Z,60.00
2017-05-06T05:34:16.661Z,60.10
2017-05-06T05:36:43.673Z,60.30
2017-05-06T05:39:10.674Z,60.40
2017-05-06T05:41:37.666Z,60.70
2017-05-06T05:44:04.642Z,61.10
2017-05-06T05:46:31.694Z,61.70
2017-05-06T05:48:58.661Z,63.20
2017-05-06T05:51:25.640Z,62.40
2017-05-06T05:53:52.651Z,62.50
2017-05-06T05:56:19.629Z,62.30
2017-05-06T05:58:46.637Z,62.00
2017-05-06T06:01:13.612Z,61.70
2017-05-06T06:03:41.359Z,61.70
2017-05-06T06:06:08.338Z,61.80
2017-05-06T06:08:35.306Z,62.10
2017-05-06T06:11:02.326Z,62.20
2017-05-06T06:13:29.293Z,62.40
2017-05-06T06:15:56.291Z,62.50
2017-05-06T06:20:57.615Z,62.90
2017-05-06T06:23:24.586Z,62.40
2017-05-06T06:25:52.301Z,62.30
2017-05-06T06:28:19.286Z,62.00
2017-05-06T06:30:47.028Z,62.20
2017-05-06T06:33:14.030Z,61.40
2017-05-06T06:35:40.997Z,61.70
2017-05-06T06:38:07.995Z,61.40
2017-05-06T06:40:35.718Z,61.60
2017-05-06T06:43:02.694Z,60.90
2017-05-06T06:45:30.426Z,60.70
2017-05-06T06:47:57.418Z,59.80
2017-05-06T06:50:24.442Z,59.30
2017-05-06T06:52:51.406Z,59.30
2017-05-06T06:55:19.141Z,59.80
2017-05-06T06:57:46.118Z,59.50
2017-05-06T07:00:13.884Z,59.30
2017-05-06T07:02:40.963Z,58.90
2017-05-06T07:05:08.045Z,58.70
2017-05-06T07:07:35.047Z,58.80
2017-05-06T07:10:02.407Z,58.90
2017-05-06T07:12:29.402Z,58.60
2017-05-06T07:14:56.895Z,58.50
2017-05-06T07:17:23.885Z,58.60
2017-05-06T07:19:50.859Z,58.60
2017-05-06T07:22:17.859Z,59.00
2017-05-06T07:24:45.000Z,58.70
2017-05-06T07:27:12.017Z,58.70
2017-05-06T07:29:38.994Z,58.50
2017-05-06T07:32:05.969Z,58.50
2017-05-06T07:34:33.735Z,58.50
2017-05-06T07:37:01.447Z,58.90
2017-05-06T07:39:28.425Z,58.60
2017-05-06T07:41:55.560Z,58.80
2017-05-06T07:44:22.569Z,59.00
2017-05-06T07:46:49.710Z,59.20
2017-05-06T07:49:16.712Z,59.30
2017-05-06T07:51:43.704Z,58.70
2017-05-06T07:54:10.682Z,58.30
2017-05-06T07:56:37.671Z,58.40
2017-05-06T07:59:04.665Z,58.80
2017-05-06T08:01:31.665Z,59.50
2017-05-06T08:03:58.646Z,59.20
2017-05-06T08:06:25.638Z,58.10
2017-05-06T08:08:53.390Z,57.70
2017-05-06T08:11:21.098Z,58.80
2017-05-06T08:13:48.083Z,57.70
2017-05-06T08:16:15.073Z,57.50
2017-05-06T08:18:42.456Z,57.60
2017-05-06T08:21:09.423Z,56.90
2017-05-06T08:23:36.430Z,57.20
2017-05-06T08:26:03.492Z,56.80
2017-05-06T08:28:30.916Z,56.20
2017-05-06T08:30:57.892Z,56.80
2017-05-06T08:33:25.107Z,56.00
2017-05-06T08:35:52.189Z,56.60
2017-05-06T08:38:19.216Z,56.30
2017-05-06T08:40:46.946Z,56.00
2017-05-06T08:43:14.151Z,55.20
2017-05-06T08:45:41.204Z,54.40
2017-05-06T08:48:08.174Z,54.80
2017-05-06T08:50:35.162Z,54.90
2017-05-06T08:53:02.234Z,55.00
2017-05-06T08:55:29.268Z,54.60
2017-05-06T08:57:57.005Z,54.10
2017-05-06T09:00:24.222Z,54.20
2017-05-06T09:02:51.324Z,54.00
2017-05-06T09:05:19.069Z,54.00
2017-05-06T09:07:46.031Z,54.20
2017-05-06T09:10:12.998Z,53.80
2017-05-06T09:12:40.741Z,53.40
2017-05-06T09:15:07.710Z,53.20
2017-05-06T09:17:34.704Z,53.30
2017-05-06T09:20:01.674Z,53.50
2017-05-06T09:22:29.403Z,53.80
2017-05-06T09:24:56.366Z,52.90
2017-05-06T09:27:23.360Z,53.20
2017-05-06T09:29:51.067Z,52.80
2017-05-06T09:32:18.050Z,53.10
2017-05-06T09:34:45.016Z,52.70
2017-05-06T09:37:11.985Z,52.40
2017-05-06T09:39:38.979Z,51.90
2017-05-06T09:42:05.942Z,51.70
2017-05-06T09:44:32.925Z,52.30
2017-05-06T09:46:59.887Z,52.20
2017-05-06T09:49:26.893Z,51.60
2017-05-06T09:51:53.880Z,51.30
2017-05-06T09:54:21.582Z,51.20
2017-05-06T09:56:49.314Z,51.10
2017-05-06T09:59:16.298Z,50.90
2017-05-06T10:01:44.025Z,51.10
2017-05-06T10:04:11.021Z,51.10
2017-05-06T10:06:38.023Z,51.10
2017-05-06T10:09:04.985Z,50.80
2017-05-06T10:11:31.950Z,50.30
2017-05-06T10:13:58.945Z,50.70
2017-05-06T10:16:25.931Z,49.60
2017-05-06T10:18:53.886Z,49.40
2017-05-06T10:21:20.894Z,49.20
2017-05-06T10:23:47.887Z,49.00
2017-05-06T10:26:15.780Z,49.40
2017-05-06T10:28:42.779Z,49.20
2017-05-06T10:31:09.750Z,49.40
2017-05-06T10:33:37.449Z,48.00
2017-05-06T10:36:04.428Z,47.90
2017-05-06T10:38:31.394Z,48.20
2017-05-06T10:40:58.387Z,47.00
2017-05-06T10:43:25.355Z,46.40
2017-05-06T10:45:52.359Z,47.50
2017-05-06T10:48:19.332Z,48.30
2017-05-06T10:50:46.449Z,47.70
2017-05-06T10:53:14.184Z,48.00
2017-05-06T10:55:41.162Z,46.30
2017-05-06T10:58:08.181Z,45.80
2017-05-06T11:00:35.147Z,46.00
2017-05-06T11:03:02.875Z,45.90
2017-05-06T11:05:29.846Z,45.50
2017-05-06T11:07:57.576Z,45.50
2017-05-06T11:10:24.554Z,44.50
2017-05-06T11:12:52.256Z,43.80
2017-05-06T11:15:19.271Z,43.30
2017-05-06T11:17:46.975Z,43.70
2017-05-06T11:20:13.974Z,43.60
2017-05-06T11:22:41.676Z,44.10
2017-05-06T11:25:08.642Z,42.40
2017-05-06T11:27:35.643Z,41.60
2017-05-06T11:30:02.637Z,41.60
2017-05-06T11:32:29.614Z,42.20
2017-05-06T11:34:56.573Z,42.10
2017-05-06T11:37:24.309Z,42.20
2017-05-06T11:39:51.274Z,42.90
2017-05-06T11:42:19.001Z,43.60
2017-05-06T11:44:45.990Z,43.40
2017-05-06T11:47:13.705Z,41.80
2017-05-06T11:49:40.707Z,42.50
2017-05-06T11:52:08.405Z,42.70
2017-05-06T11:54:35.406Z,41.50
2017-05-06T11:57:03.105Z,42.60
2017-05-06T11:59:30.132Z,43.30
2017-05-06T12:01:57.104Z,41.00
2017-05-06T12:04:24.066Z,41.20
2017-05-06T12:06:51.057Z,41.00
2017-05-06T12:09:18.780Z,39.20
2017-05-06T12:11:46.374Z,39.70
2017-05-06T12:14:14.088Z,39.60
2017-05-06T12:16:41.092Z,39.80
2017-05-06T12:19:08.795Z,38.20
2017-05-06T12:21:35.758Z,40.90
2017-05-06T12:24:03.483Z,41.80
2017-05-06T12:26:30.478Z,41.40
2017-05-06T12:28:58.206Z,40.70
2017-05-06T12:31:25.176Z,41.50
2017-05-06T12:33:59.741Z,42.20
2017-05-06T12:36:26.713Z,42.20
2017-05-06T12:38:53.712Z,40.90
2017-05-06T12:41:20.678Z,41.20
2017-05-06T12:43:47.695Z,40.60
2017-05-06T12:46:15.410Z,40.90
2017-05-06T12:48:42.394Z,41.00
2017-05-06T12:51:09.394Z,41.40
2017-05-06T12:53:36.384Z,41.50
2017-05-06T12:56:03.367Z,42.60
2017-05-06T12:58:30.362Z,45.40
2017-05-06T13:00:57.370Z,42.70
2017-05-06T13:03:24.349Z,41.20
2017-05-06T13:05:51.329Z,40.60
2017-05-06T13:08:18.324Z,41.10
2017-05-06T13:10:46.031Z,41.90
2017-05-06T13:13:13.028Z,42.50
2017-05-06T13:15:40.737Z,43.30
2017-05-06T13:18:07.721Z,42.00
2017-05-06T13:20:34.690Z,42.00
2017-05-06T13:23:01.679Z,42.60
2017-05-06T13:25:28.673Z,42.90
2017-05-06T13:27:55.896Z,43.20
2017-05-06T13:30:23.786Z,44.00
2017-05-06T13:32:50.776Z,43.90
2017-05-06T13:35:17.748Z,43.50
2017-05-06T13:37:44.732Z,44.70
2017-05-06T13:40:11.698Z,45.60
2017-05-06T13:42:38.687Z,45.80
2017-05-06T13:45:05.680Z,45.40
2017-05-06T13:47:33.398Z,45.40
2017-05-06T13:50:00.382Z,45.00
2017-05-06T13:52:27.346Z,45.30
2017-05-06T13:54:54.333Z,45.40
2017-05-06T13:57:21.333Z,45.70
2017-05-06T13:59:48.359Z,46.30
2017-05-06T14:02:16.069Z,46.10
2017-05-06T14:04:43.045Z,45.50
2017-05-06T14:07:10.786Z,45.10
2017-05-06T14:09:37.757Z,45.00
2017-05-06T14:12:04.758Z,45.60
2017-05-06T14:14:32.517Z,44.90
2017-05-06T14:16:59.494Z,46.30
2017-05-06T14:19:27.254Z,45.40
2017-05-06T14:21:54.249Z,44.90
2017-05-06T14:24:21.249Z,44.80
2017-05-06T14:26:48.231Z,44.30
2017-05-06T14:29:15.258Z,44.30
2017-05-06T14:31:42.238Z,45.10
2017-05-06T14:34:09.214Z,43.10
2017-05-06T14:36:36.206Z,43.00
2017-05-06T14:39:03.244Z,45.70
2017-05-06T14:41:30.998Z,46.60
2017-05-06T14:43:58.737Z,46.90
2017-05-06T14:46:25.779Z,45.00
2017-05-06T14:48:52.762Z,44.50
2017-05-06T14:51:19.737Z,44.90
2017-05-06T14:53:46.737Z,43.80
2017-05-06T14:56:13.729Z,44.00
2017-05-06T14:58:40.776Z,44.30
2017-05-06T15:01:07.750Z,43.50
2017-05-06T15:03:35.506Z,43.90
2017-05-06T15:06:02.482Z,44.80
2017-05-06T15:08:29.483Z,44.60
2017-05-06T15:10:56.554Z,44.10
2017-05-06T15:13:24.383Z,44.80
2017-05-06T15:15:51.403Z,44.60
2017-05-06T15:18:18.383Z,44.50
2017-05-06T15:20:45.385Z,45.00
2017-05-06T15:23:12.490Z,45.20
2017-05-06T15:25:39.535Z,45.50
2017-05-06T15:28:06.509Z,45.60
2017-05-06T15:30:33.521Z,45.70
2017-05-06T15:33:00.523Z,45.90
2017-05-06T15:35:27.491Z,46.50
2017-05-06T15:37:54.483Z,47.50
2017-05-06T15:40:22.233Z,47.10
2017-05-06T15:42:49.232Z,47.30
2017-05-06T15:45:16.260Z,47.70
2017-05-06T15:47:43.282Z,48.00
2017-05-06T15:50:11.009Z,48.60
2017-05-06T15:52:38.130Z,48.30
2017-05-06T15:55:05.842Z,48.50
2017-05-06T15:57:32.911Z,48.70
2017-05-06T15:59:59.907Z,48.70
2017-05-06T16:02:26.933Z,49.10
2017-05-06T16:04:54.082Z,49.40
2017-05-06T16:07:21.085Z,50.00
2017-05-06T16:09:48.208Z,49.80
2017-05-06T16:12:15.229Z,50.10
2017-05-06T16:14:42.291Z,50.40
2017-05-06T16:17:09.261Z,50.70
2017-05-06T16:19:36.223Z,51.00
2017-05-06T16:22:03.219Z,51.30
2017-05-06T16:24:30.289Z,51.50
2017-05-06T16:29:31.068Z,52.60
2017-05-06T16:31:58.237Z,52.50
2017-05-06T16:34:25.198Z,52.90
2017-05-06T16:36:53.082Z,53.60
2017-05-06T16:39:20.203Z,53.70
2017-05-06T16:41:54.220Z,53.70
2017-05-06T16:44:22.201Z,54.20
2017-05-06T16:46:49.274Z,54.80
2017-05-06T16:49:16.309Z,55.00
2017-05-06T16:51:43.419Z,56.00
2017-05-06T16:54:10.435Z,55.90
2017-05-06T16:56:37.403Z,56.50
2017-05-06T16:59:04.530Z,57.40
2017-05-06T17:01:31.499Z,57.40
2017-05-06T17:03:58.469Z,57.80
2017-05-06T17:06:26.216Z,58.80
2017-05-06T17:08:53.187Z,58.90
2017-05-06T17:11:20.205Z,59.30
2017-05-06T17:13:47.923Z,59.70
2017-05-06T17:16:29.860Z,59.40
2017-05-06T17:18:57.590Z,59.70
2017-05-06T17:21:24.582Z,60.00
2017-05-06T17:23:52.308Z,60.50
2017-05-06T17:26:19.306Z,60.50
2017-05-06T17:28:47.358Z,61.20
2017-05-06T17:31:14.509Z,60.70
2017-05-06T17:33:41.496Z,61.50
2017-05-06T17:36:08.457Z,61.50
2017-05-06T17:38:35.454Z,61.70
2017-05-06T17:41:03.162Z,62.00
2017-05-06T17:43:30.164Z,61.80
2017-05-06T17:45:57.992Z,62.30
2017-05-06T17:48:26.022Z,62.20
2017-05-06T17:50:53.018Z,61.90
2017-05-06T17:53:19.982Z,61.70
2017-05-06T17:55:47.711Z,61.60
2017-05-06T17:58:14.713Z,61.60
2017-05-06T18:00:41.706Z,61.60
2017-05-06T18:03:08.670Z,61.70
2017-05-06T18:05:36.418Z,61.60
2017-05-06T18:08:03.380Z,61.30
2017-05-06T18:10:31.089Z,61.60
2017-05-06T18:12:58.085Z,61.60
2017-05-06T18:15:25.791Z,61.30
2017-05-06T18:17:52.781Z,61.10
2017-05-06T18:20:19.745Z,60.90
2017-05-06T18:22:47.671Z,60.60
2017-05-06T18:25:15.273Z,60.50
2017-05-06T18:27:43.096Z,60.50
2017-05-06T18:30:10.814Z,60.10
2017-05-06T18:32:38.778Z,60.10
2017-05-06T18:35:05.754Z,60.20
2017-05-06T18:37:32.774Z,59.90
2017-05-06T18:39:59.782Z,60.10
2017-05-06T18:42:27.495Z,60.10
2017-05-06T18:44:54.487Z,60.00
2017-05-06T18:47:22.198Z,60.00
2017-05-06T18:49:49.183Z,60.00
2017-05-06T18:52:16.189Z,59.80
2017-05-06T18:54:43.205Z,59.60
2017-05-06T18:57:10.187Z,59.80
2017-05-06T18:59:37.191Z,60.20
2017-05-06T19:02:04.189Z,60.20
2017-05-06T19:04:31.169Z,60.20
2017-05-06T19:06:58.901Z,60.60
2017-05-06T19:09:27.613Z,60.70
2017-05-06T19:11:56.262Z,60.40
2017-05-06T19:14:23.239Z,60.50
2017-05-06T19:16:50.202Z,60.80
2017-05-06T19:19:17.938Z,61.30
2017-05-06T19:21:44.899Z,61.20
2017-05-06T19:24:11.885Z,61.00
2017-05-06T19:26:39.663Z,61.40
2017-05-06T19:29:06.656Z,62.10
2017-05-06T19:31:33.644Z,61.40
2017-05-06T19:34:01.376Z,61.80
2017-05-06T19:36:28.350Z,61.60
2017-05-06T19:38:56.086Z,61.90
2017-05-06T19:41:23.052Z,61.60
2017-05-06T19:43:50.110Z,61.90
2017-05-06T19:46:17.841Z,61.80
2017-05-06T19:48:44.822Z,61.80
2017-05-06T19:51:12.549Z,62.00
2017-05-06T19:53:39.514Z,62.20
2017-05-06T19:56:06.538Z,62.40
2017-05-06T19:58:33.565Z,62.20
2017-05-06T20:01:00.572Z,62.80
2017-05-06T20:03:28.369Z,62.70
2017-05-06T20:05:55.367Z,63.20
2017-05-06T20:08:22.357Z,63.20
2017-05-06T20:10:49.333Z,63.50
2017-05-06T20:13:16.336Z,63.60
2017-05-06T20:15:43.305Z,63.70
2017-05-06T20:18:10.346Z,63.70
2017-05-06T20:20:37.349Z,64.00
2017-05-06T20:23:05.094Z,64.80
2017-05-06T20:25:32.058Z,64.10
2017-05-06T20:27:59.058Z,64.10
2017-05-06T20:30:26.050Z,64.30
2017-05-06T20:32:53.763Z,64.90
2017-05-06T20:35:20.782Z,64.40
2017-05-06T20:37:47.746Z,64.50
2017-05-06T20:40:16.194Z,64.80
2017-05-06T20:42:43.940Z,64.80
2017-05-06T20:45:10.949Z,64.60
2017-05-06T20:47:37.969Z,64.70
2017-05-06T20:50:04.958Z,64.70
2017-05-06T20:52:31.967Z,64.60
2017-05-06T20:54:58.934Z,64.80
2017-05-06T20:57:26.104Z,64.90
2017-05-06T20:59:53.103Z,64.70
2017-05-06T21:02:20.072Z,64.70
2017-05-06T21:04:47.067Z,65.00
2017-05-06T21:07:14.033Z,65.30
2017-05-06T21:09:41.761Z,65.30
2017-05-06T21:12:08.725Z,65.20
2017-05-06T21:14:36.474Z,65.50
2017-05-06T21:17:03.452Z,65.80
2017-05-06T21:19:31.160Z,65.90
2017-05-06T21:21:58.166Z,65.60
2017-05-06T21:24:25.149Z,66.50
2017-05-06T21:26:52.133Z,65.90
2017-05-06T21:29:19.103Z,66.00
2017-05-06T21:31:46.114Z,65.90
2017-05-06T21:34:13.206Z,66.00
2017-05-06T21:36:40.325Z,66.20
2017-05-06T21:39:08.055Z,67.00
2017-05-06T21:41:35.022Z,66.30
2017-05-06T21:44:02.152Z,66.20
2017-05-06T21:46:29.278Z,66.20
2017-05-06T21:48:56.270Z,66.50
2017-05-06T21:51:23.271Z,66.50
2017-05-06T21:53:50.299Z,66.50
2017-05-06T21:56:17.284Z,66.60
2017-05-06T21:58:44.277Z,66.50
2017-05-06T22:01:12.008Z,66.60
2017-05-06T22:03:38.984Z,66.50
2017-05-06T22:06:06.722Z,66.60
2017-05-06T22:08:33.689Z,66.50
2017-05-06T22:11:01.441Z,66.70
2017-05-06T22:13:28.412Z,66.40
2017-05-06T22:15:55.389Z,67.40
2017-05-06T22:18:22.383Z,66.50
2017-05-06T22:20:50.086Z,66.70
2017-05-06T22:23:17.126Z,66.50
2017-05-06T22:25:44.093Z,66.60
2017-05-06T22:28:11.095Z,66.70
2017-05-06T22:30:38.805Z,66.80
2017-05-06T22:33:05.778Z,66.90
2017-05-06T22:35:32.753Z,66.80
2017-05-06T22:38:00.473Z,66.90
2017-05-06T22:40:27.476Z,67.00
2017-05-06T22:42:54.442Z,67.00
2017-05-06T22:45:21.408Z,67.00
2017-05-06T22:47:48.399Z,67.00
2017-05-06T22:50:16.105Z,66.90
2017-05-06T22:52:43.092Z,66.90
2017-05-06T22:55:10.054Z,66.70
2017-05-06T22:57:37.813Z,66.50
2017-05-06T23:00:05.543Z,66.70
2017-05-06T23:02:32.569Z,66.60
2017-05-06T23:04:59.559Z,66.80
2017-05-06T23:07:26.537Z,66.80
2017-05-06T23:09:53.523Z,66.70
2017-05-06T23:12:20.490Z,66.60
2017-05-06T23:14:47.476Z,66.60
2017-05-06T23:17:14.442Z,66.40
2017-05-06T23:19:41.436Z,66.50
2017-05-06T23:22:08.405Z,66.40
2017-05-06T23:24:35.381Z,66.70
2017-05-06T23:27:02.365Z,66.30
2017-05-06T23:29:29.333Z,66.20
2017-05-06T23:31:57.071Z,66.30
2017-05-06T23:34:24.038Z,66.20
2017-05-06T23:36:51.774Z,66.40
2017-05-06T23:39:18.814Z,66.40
2017-05-06T23:41:45.775Z,66.30
2017-05-06T23:44:12.765Z,66.20
2017-05-06T23:46:39.738Z,66.40
2017-05-06T23:49:06.722Z,66.40
2017-05-06T23:51:34.432Z,66.40
2017-05-06T23:54:01.433Z,66.40
2017-05-06T23:56:29.147Z,66.50
2017-05-06T23:58:56.169Z,66.30
